sensor_id;sensor_type;location;lat;lon;timestamp;pressure;altitude;pressure_sealevel;temperature
34125;BMP280;20110;53.120;5.786;2023-04-03T00:00:52;103264.59;;;6.99
34125;BMP280;20110;53.120;5.786;2023-04-03T00:03:19;103282.28;;;7.15
34125;BMP280;20110;53.120;5.786;2023-04-03T00:05:46;103205.88;;;6.66
34125;BMP280;20110;53.120;5.786;2023-04-03T00:08:12;103283.03;;;7.15
34125;BMP280;20110;53.120;5.786;2023-04-03T00:10:38;103228.72;;;6.73
34125;BMP280;20110;53.120;5.786;2023-04-03T00:13:06;103228.28;;;6.61
34125;BMP280;20110;53.120;5.786;2023-04-03T00:15:32;103289.47;;;7.02
34125;BMP280;20110;53.120;5.786;2023-04-03T00:17:58;103282.38;;;6.98
34125;BMP280;20110;53.120;5.786;2023-04-03T00:20:24;103289.06;;;7.03
34125;BMP280;20110;53.120;5.786;2023-04-03T00:22:50;103293.59;;;7.03
34125;BMP280;20110;53.120;5.786;2023-04-03T00:25:16;103245.16;;;6.64
34125;BMP280;20110;53.120;5.786;2023-04-03T00:27:42;103287.13;;;6.91
34125;BMP280;20110;53.120;5.786;2023-04-03T00:30:11;103300.47;;;7.00
34125;BMP280;20110;53.120;5.786;2023-04-03T00:32:39;103292.41;;;6.91
34125;BMP280;20110;53.120;5.786;2023-04-03T00:35:06;103149.41;;;5.89
34125;BMP280;20110;53.120;5.786;2023-04-03T00:37:32;103286.41;;;6.74
34125;BMP280;20110;53.120;5.786;2023-04-03T00:39:58;103294.03;;;6.72
34125;BMP280;20110;53.120;5.786;2023-04-03T00:42:25;103238.91;;;6.29
34125;BMP280;20110;53.120;5.786;2023-04-03T00:47:24;103302.63;;;6.44
34125;BMP280;20110;53.120;5.786;2023-04-03T00:49:52;103263.97;;;6.05
34125;BMP280;20110;53.120;5.786;2023-04-03T00:52:25;103303.84;;;6.23
34125;BMP280;20110;53.120;5.786;2023-04-03T00:54:57;103265.88;;;5.88
34125;BMP280;20110;53.120;5.786;2023-04-03T00:57:24;103308.81;;;6.05
34125;BMP280;20110;53.120;5.786;2023-04-03T00:59:57;103303.84;;;5.90
34125;BMP280;20110;53.120;5.786;2023-04-03T01:02:23;103306.66;;;5.83
34125;BMP280;20110;53.120;5.786;2023-04-03T01:04:49;103283.38;;;5.62
34125;BMP280;20110;53.120;5.786;2023-04-03T01:07:19;103307.84;;;5.62
34125;BMP280;20110;53.120;5.786;2023-04-03T01:09:51;103269.19;;;5.36
34125;BMP280;20110;53.120;5.786;2023-04-03T01:12:34;103316.19;;;5.57
34125;BMP280;20110;53.120;5.786;2023-04-03T01:18:00;103300.38;;;5.41
34125;BMP280;20110;53.120;5.786;2023-04-03T01:25:46;103319.06;;;5.47
34125;BMP280;20110;53.120;5.786;2023-04-03T01:28:21;103288.22;;;5.27
34125;BMP280;20110;53.120;5.786;2023-04-03T01:33:24;103275.72;;;5.31
34125;BMP280;20110;53.120;5.786;2023-04-03T01:35:50;103302.19;;;5.44
34125;BMP280;20110;53.120;5.786;2023-04-03T01:38:15;103289.69;;;5.28
34125;BMP280;20110;53.120;5.786;2023-04-03T01:40:41;103297.84;;;5.34
34125;BMP280;20110;53.120;5.786;2023-04-03T01:43:08;103283.38;;;5.22
34125;BMP280;20110;53.120;5.786;2023-04-03T01:45:33;103297.31;;;5.23
34125;BMP280;20110;53.120;5.786;2023-04-03T01:47:59;103304.81;;;5.24
34125;BMP280;20110;53.120;5.786;2023-04-03T01:50:25;103245.00;;;4.82
34125;BMP280;20110;53.120;5.786;2023-04-03T01:52:51;103295.72;;;5.09
34125;BMP280;20110;53.120;5.786;2023-04-03T01:55:17;103270.88;;;4.87
34125;BMP280;20110;53.120;5.786;2023-04-03T01:57:42;103306.69;;;5.04
34125;BMP280;20110;53.120;5.786;2023-04-03T02:00:09;103306.31;;;5.06
34125;BMP280;20110;53.120;5.786;2023-04-03T02:02:35;103301.59;;;4.93
34125;BMP280;20110;53.120;5.786;2023-04-03T02:05:01;103292.28;;;4.89
34125;BMP280;20110;53.120;5.786;2023-04-03T02:07:27;103321.47;;;4.98
34125;BMP280;20110;53.120;5.786;2023-04-03T02:09:53;103311.78;;;4.91
34125;BMP280;20110;53.120;5.786;2023-04-03T02:12:18;103327.91;;;4.97
34125;BMP280;20110;53.120;5.786;2023-04-03T02:14:44;103311.25;;;4.80
34125;BMP280;20110;53.120;5.786;2023-04-03T02:17:10;103313.28;;;4.92
34125;BMP280;20110;53.120;5.786;2023-04-03T02:19:36;103306.59;;;4.88
34125;BMP280;20110;53.120;5.786;2023-04-03T02:22:04;103331.84;;;5.09
34125;BMP280;20110;53.120;5.786;2023-04-03T02:24:30;103330.44;;;5.00
34125;BMP280;20110;53.120;5.786;2023-04-03T02:26:57;103280.22;;;4.68
34125;BMP280;20110;53.120;5.786;2023-04-03T02:29:23;103338.69;;;5.02
34125;BMP280;20110;53.120;5.786;2023-04-03T02:31:50;103344.03;;;4.99
34125;BMP280;20110;53.120;5.786;2023-04-03T02:34:17;103263.44;;;4.35
34125;BMP280;20110;53.120;5.786;2023-04-03T02:36:43;103312.00;;;4.57
34125;BMP280;20110;53.120;5.786;2023-04-03T02:39:09;103344.03;;;4.76
34125;BMP280;20110;53.120;5.786;2023-04-03T02:41:35;103352.38;;;4.70
34125;BMP280;20110;53.120;5.786;2023-04-03T02:44:03;103354.34;;;4.66
34125;BMP280;20110;53.120;5.786;2023-04-03T02:46:29;103311.16;;;4.37
34125;BMP280;20110;53.120;5.786;2023-04-03T02:48:54;103311.81;;;4.45
34125;BMP280;20110;53.120;5.786;2023-04-03T02:51:21;103283.84;;;4.31
34125;BMP280;20110;53.120;5.786;2023-04-03T02:53:49;103272.19;;;4.28
34125;BMP280;20110;53.120;5.786;2023-04-03T02:56:16;103329.59;;;4.60
34125;BMP280;20110;53.120;5.786;2023-04-03T02:58:43;103305.06;;;4.44
34125;BMP280;20110;53.120;5.786;2023-04-03T03:01:09;103339.75;;;4.62
34125;BMP280;20110;53.120;5.786;2023-04-03T03:03:35;103325.16;;;4.57
34125;BMP280;20110;53.120;5.786;2023-04-03T03:06:08;103352.97;;;4.82
34125;BMP280;20110;53.120;5.786;2023-04-03T03:08:35;103359.34;;;4.84
34125;BMP280;20110;53.120;5.786;2023-04-03T03:11:01;103360.09;;;4.85
34125;BMP280;20110;53.120;5.786;2023-04-03T03:13:27;103361.97;;;4.84
34125;BMP280;20110;53.120;5.786;2023-04-03T03:15:54;103365.38;;;4.81
34125;BMP280;20110;53.120;5.786;2023-04-03T03:18:22;103355.41;;;4.69
34125;BMP280;20110;53.120;5.786;2023-04-03T03:20:53;103368.59;;;4.69
34125;BMP280;20110;53.120;5.786;2023-04-03T03:23:19;103313.25;;;4.22
34125;BMP280;20110;53.120;5.786;2023-04-03T03:25:45;103322.06;;;4.35
34125;BMP280;20110;53.120;5.786;2023-04-03T03:28:11;103374.25;;;4.67
34125;BMP280;20110;53.120;5.786;2023-04-03T03:30:37;103268.50;;;3.99
34125;BMP280;20110;53.120;5.786;2023-04-03T03:33:03;103341.00;;;4.54
34125;BMP280;20110;53.120;5.786;2023-04-03T03:35:29;103369.72;;;4.68
34125;BMP280;20110;53.120;5.786;2023-04-03T03:37:54;103295.75;;;4.12
34125;BMP280;20110;53.120;5.786;2023-04-03T03:40:21;103376.19;;;4.63
34125;BMP280;20110;53.120;5.786;2023-04-03T03:42:46;103379.22;;;4.62
34125;BMP280;20110;53.120;5.786;2023-04-03T03:45:12;103364.63;;;4.57
34125;BMP280;20110;53.120;5.786;2023-04-03T03:47:38;103366.84;;;4.59
34125;BMP280;20110;53.120;5.786;2023-04-03T03:50:06;103350.47;;;4.48
34125;BMP280;20110;53.120;5.786;2023-04-03T03:52:32;103362.00;;;4.57
34125;BMP280;20110;53.120;5.786;2023-04-03T03:54:58;103376.53;;;4.65
34125;BMP280;20110;53.120;5.786;2023-04-03T03:57:23;103316.16;;;4.31
34125;BMP280;20110;53.120;5.786;2023-04-03T03:59:50;103367.25;;;4.57
34125;BMP280;20110;53.120;5.786;2023-04-03T04:02:17;103386.66;;;4.67
34125;BMP280;20110;53.120;5.786;2023-04-03T04:04:42;103344.94;;;4.38
34125;BMP280;20110;53.120;5.786;2023-04-03T04:07:08;103365.81;;;4.53
34125;BMP280;20110;53.120;5.786;2023-04-03T04:09:34;103350.59;;;4.41
34125;BMP280;20110;53.120;5.786;2023-04-03T04:12:00;103378.53;;;4.58
34125;BMP280;20110;53.120;5.786;2023-04-03T04:14:26;103360.75;;;4.38
34125;BMP280;20110;53.120;5.786;2023-04-03T04:16:52;103368.97;;;4.44
34125;BMP280;20110;53.120;5.786;2023-04-03T04:19:17;103354.50;;;4.29
34125;BMP280;20110;53.120;5.786;2023-04-03T04:21:43;103313.22;;;3.95
34125;BMP280;20110;53.120;5.786;2023-04-03T04:24:09;103346.50;;;4.09
34125;BMP280;20110;53.120;5.786;2023-04-03T04:26:35;103316.38;;;3.87
34125;BMP280;20110;53.120;5.786;2023-04-03T04:29:01;103327.97;;;3.89
34125;BMP280;20110;53.120;5.786;2023-04-03T04:31:27;103378.34;;;4.15
34125;BMP280;20110;53.120;5.786;2023-04-03T04:33:53;103319.53;;;3.71
34125;BMP280;20110;53.120;5.786;2023-04-03T04:36:19;103361.72;;;3.91
34125;BMP280;20110;53.120;5.786;2023-04-03T04:38:45;103363.00;;;3.79
34125;BMP280;20110;53.120;5.786;2023-04-03T04:41:11;103370.69;;;3.97
34125;BMP280;20110;53.120;5.786;2023-04-03T04:43:37;103369.13;;;4.03
34125;BMP280;20110;53.120;5.786;2023-04-03T04:46:06;103365.75;;;4.02
34125;BMP280;20110;53.120;5.786;2023-04-03T04:48:32;103378.44;;;4.07
34125;BMP280;20110;53.120;5.786;2023-04-03T04:50:58;103356.16;;;3.85
34125;BMP280;20110;53.120;5.786;2023-04-03T04:53:24;103394.31;;;4.00
34125;BMP280;20110;53.120;5.786;2023-04-03T04:55:51;103403.34;;;3.99
34125;BMP280;20110;53.120;5.786;2023-04-03T04:58:17;103402.63;;;3.95
34125;BMP280;20110;53.120;5.786;2023-04-03T05:00:43;103407.50;;;3.97
34125;BMP280;20110;53.120;5.786;2023-04-03T05:03:09;103415.41;;;3.97
34125;BMP280;20110;53.120;5.786;2023-04-03T05:05:35;103403.78;;;3.91
34125;BMP280;20110;53.120;5.786;2023-04-03T05:08:02;103414.59;;;4.00
34125;BMP280;20110;53.120;5.786;2023-04-03T05:10:29;103416.75;;;4.09
34125;BMP280;20110;53.120;5.786;2023-04-03T05:12:54;103392.09;;;3.99
34125;BMP280;20110;53.120;5.786;2023-04-03T05:15:20;103387.84;;;4.05
34125;BMP280;20110;53.120;5.786;2023-04-03T05:17:46;103409.81;;;4.22
34125;BMP280;20110;53.120;5.786;2023-04-03T05:20:13;103411.19;;;4.33
34125;BMP280;20110;53.120;5.786;2023-04-03T05:22:38;103411.66;;;4.25
34125;BMP280;20110;53.120;5.786;2023-04-03T05:25:05;103424.69;;;4.35
34125;BMP280;20110;53.120;5.786;2023-04-03T05:27:32;103404.13;;;4.27
34125;BMP280;20110;53.120;5.786;2023-04-03T05:29:57;103337.41;;;3.83
34125;BMP280;20110;53.120;5.786;2023-04-03T05:32:25;103430.13;;;4.52
34125;BMP280;20110;53.120;5.786;2023-04-03T05:34:53;103388.91;;;4.42
34125;BMP280;20110;53.120;5.786;2023-04-03T05:37:21;103420.69;;;4.81
34125;BMP280;20110;53.120;5.786;2023-04-03T05:39:47;103429.22;;;4.89
34125;BMP280;20110;53.120;5.786;2023-04-03T05:42:13;103439.56;;;4.99
34125;BMP280;20110;53.120;5.786;2023-04-03T05:44:39;103420.41;;;4.99
34125;BMP280;20110;53.120;5.786;2023-04-03T05:47:06;103409.56;;;4.93
34125;BMP280;20110;53.120;5.786;2023-04-03T05:49:32;103420.69;;;5.05
34125;BMP280;20110;53.120;5.786;2023-04-03T05:51:58;103428.06;;;5.13
34125;BMP280;20110;53.120;5.786;2023-04-03T05:54:27;103422.44;;;5.11
34125;BMP280;20110;53.120;5.786;2023-04-03T05:56:53;103438.81;;;5.22
34125;BMP280;20110;53.120;5.786;2023-04-03T05:59:20;103438.41;;;5.27
34125;BMP280;20110;53.120;5.786;2023-04-03T06:01:47;103389.94;;;4.98
34125;BMP280;20110;53.120;5.786;2023-04-03T06:04:14;103444.34;;;5.31
34125;BMP280;20110;53.120;5.786;2023-04-03T06:06:53;103441.97;;;5.37
34125;BMP280;20110;53.120;5.786;2023-04-03T06:09:23;103444.16;;;5.42
34125;BMP280;20110;53.120;5.786;2023-04-03T06:11:49;103442.56;;;5.48
34125;BMP280;20110;53.120;5.786;2023-04-03T06:14:15;103423.19;;;5.35
34125;BMP280;20110;53.120;5.786;2023-04-03T06:16:41;103441.28;;;5.56
34125;BMP280;20110;53.120;5.786;2023-04-03T06:19:11;103453.53;;;5.66
34125;BMP280;20110;53.120;5.786;2023-04-03T06:21:38;103442.69;;;5.61
34125;BMP280;20110;53.120;5.786;2023-04-03T06:24:05;103457.00;;;5.80
34125;BMP280;20110;53.120;5.786;2023-04-03T06:26:31;103440.13;;;5.77
34125;BMP280;20110;53.120;5.786;2023-04-03T06:28:59;103407.00;;;5.56
34125;BMP280;20110;53.120;5.786;2023-04-03T06:31:25;103452.56;;;5.96
34125;BMP280;20110;53.120;5.786;2023-04-03T06:33:51;103381.47;;;5.53
34125;BMP280;20110;53.120;5.786;2023-04-03T06:36:19;103469.13;;;6.17
34125;BMP280;20110;53.120;5.786;2023-04-03T06:38:48;103474.19;;;6.27
34125;BMP280;20110;53.120;5.786;2023-04-03T06:41:15;103459.50;;;6.26
34125;BMP280;20110;53.120;5.786;2023-04-03T06:43:43;103475.38;;;6.43
34125;BMP280;20110;53.120;5.786;2023-04-03T06:46:17;103469.34;;;6.42
34125;BMP280;20110;53.120;5.786;2023-04-03T06:48:44;103473.94;;;6.58
34125;BMP280;20110;53.120;5.786;2023-04-03T06:51:31;103482.69;;;6.71
34125;BMP280;20110;53.120;5.786;2023-04-03T06:53:58;103484.69;;;6.83
34125;BMP280;20110;53.120;5.786;2023-04-03T06:56:26;103490.75;;;6.96
34125;BMP280;20110;53.120;5.786;2023-04-03T06:58:54;103485.63;;;7.06
34125;BMP280;20110;53.120;5.786;2023-04-03T07:01:25;103489.84;;;7.19
34125;BMP280;20110;53.120;5.786;2023-04-03T07:03:52;103498.66;;;7.29
34125;BMP280;20110;53.120;5.786;2023-04-03T07:06:18;103488.75;;;7.33
34125;BMP280;20110;53.120;5.786;2023-04-03T07:08:46;103491.41;;;7.33
34125;BMP280;20110;53.120;5.786;2023-04-03T07:11:14;103471.16;;;7.26
34125;BMP280;20110;53.120;5.786;2023-04-03T07:13:40;103505.16;;;7.41
34125;BMP280;20110;53.120;5.786;2023-04-03T07:16:07;103497.91;;;7.45
34125;BMP280;20110;53.120;5.786;2023-04-03T07:18:34;103498.41;;;7.40
34125;BMP280;20110;53.120;5.786;2023-04-03T07:21:01;103500.06;;;7.34
34125;BMP280;20110;53.120;5.786;2023-04-03T07:23:28;103516.63;;;7.50
34125;BMP280;20110;53.120;5.786;2023-04-03T07:25:55;103523.81;;;7.66
34125;BMP280;20110;53.120;5.786;2023-04-03T07:28:23;103514.03;;;7.63
34125;BMP280;20110;53.120;5.786;2023-04-03T07:31:06;103516.63;;;7.67
34125;BMP280;20110;53.120;5.786;2023-04-03T07:33:34;103530.19;;;7.81
34125;BMP280;20110;53.120;5.786;2023-04-03T07:36:01;103535.50;;;7.94
34125;BMP280;20110;53.120;5.786;2023-04-03T07:38:27;103534.47;;;8.04
34125;BMP280;20110;53.120;5.786;2023-04-03T07:40:54;103514.03;;;8.05
34125;BMP280;20110;53.120;5.786;2023-04-03T07:43:21;103507.28;;;8.29
34125;BMP280;20110;53.120;5.786;2023-04-03T07:45:49;103551.69;;;8.63
34125;BMP280;20110;53.120;5.786;2023-04-03T07:48:23;103529.44;;;8.60
34125;BMP280;20110;53.120;5.786;2023-04-03T07:50:50;103542.34;;;8.71
34125;BMP280;20110;53.120;5.786;2023-04-03T07:53:17;103557.50;;;8.71
34125;BMP280;20110;53.120;5.786;2023-04-03T07:55:47;103535.78;;;8.76
34125;BMP280;20110;53.120;5.786;2023-04-03T07:58:17;103546.47;;;8.97
34125;BMP280;20110;53.120;5.786;2023-04-03T08:00:43;103513.06;;;8.87
34125;BMP280;20110;53.120;5.786;2023-04-03T08:03:11;103531.13;;;9.14
34125;BMP280;20110;53.120;5.786;2023-04-03T08:05:43;103542.03;;;9.29
34125;BMP280;20110;53.120;5.786;2023-04-03T08:08:13;103546.41;;;9.45
34125;BMP280;20110;53.120;5.786;2023-04-03T08:10:39;103538.03;;;9.46
34125;BMP280;20110;53.120;5.786;2023-04-03T08:13:06;103540.13;;;9.51
34125;BMP280;20110;53.120;5.786;2023-04-03T08:15:32;103533.75;;;9.49
34125;BMP280;20110;53.120;5.786;2023-04-03T08:17:59;103537.94;;;9.59
34125;BMP280;20110;53.120;5.786;2023-04-03T08:20:27;103542.78;;;9.73
34125;BMP280;20110;53.120;5.786;2023-04-03T08:22:53;103527.91;;;9.76
34125;BMP280;20110;53.120;5.786;2023-04-03T08:25:19;103538.94;;;9.74
34125;BMP280;20110;53.120;5.786;2023-04-03T08:27:45;103535.44;;;9.77
34125;BMP280;20110;53.120;5.786;2023-04-03T08:30:12;103530.03;;;9.90
34125;BMP280;20110;53.120;5.786;2023-04-03T08:32:38;103521.59;;;10.13
34125;BMP280;20110;53.120;5.786;2023-04-03T08:35:04;103524.44;;;10.28
34125;BMP280;20110;53.120;5.786;2023-04-03T08:37:31;103530.53;;;10.38
34125;BMP280;20110;53.120;5.786;2023-04-03T08:39:57;103530.66;;;10.34
34125;BMP280;20110;53.120;5.786;2023-04-03T08:43:03;103532.47;;;10.46
34125;BMP280;20110;53.120;5.786;2023-04-03T08:45:52;103524.81;;;10.57
34125;BMP280;20110;53.120;5.786;2023-04-03T08:48:27;103533.56;;;10.76
34125;BMP280;20110;53.120;5.786;2023-04-03T08:51:08;103532.53;;;10.92
34125;BMP280;20110;53.120;5.786;2023-04-03T08:53:44;103538.16;;;11.03
34125;BMP280;20110;53.120;5.786;2023-04-03T08:56:13;103531.22;;;11.05
34125;BMP280;20110;53.120;5.786;2023-04-03T08:59:00;103511.56;;;10.85
34125;BMP280;20110;53.120;5.786;2023-04-03T09:01:39;103540.50;;;11.10
34125;BMP280;20110;53.120;5.786;2023-04-03T09:04:15;103541.56;;;11.22
34125;BMP280;20110;53.120;5.786;2023-04-03T09:06:53;103537.56;;;11.26
34125;BMP280;20110;53.120;5.786;2023-04-03T09:09:56;103534.44;;;11.37
34125;BMP280;20110;53.120;5.786;2023-04-03T09:12:33;103524.38;;;11.41
34125;BMP280;20110;53.120;5.786;2023-04-03T09:15:18;103528.19;;;11.49
34125;BMP280;20110;53.120;5.786;2023-04-03T09:23:29;103531.69;;;11.73
34125;BMP280;20110;53.120;5.786;2023-04-03T09:26:17;103508.75;;;11.76
34125;BMP280;20110;53.120;5.786;2023-04-03T09:28:45;103531.44;;;12.04
34125;BMP280;20110;53.120;5.786;2023-04-03T09:31:29;103512.31;;;12.06
34125;BMP280;20110;53.120;5.786;2023-04-03T09:34:05;103528.22;;;12.24
34125;BMP280;20110;53.120;5.786;2023-04-03T09:36:50;103525.66;;;12.30
34125;BMP280;20110;53.120;5.786;2023-04-03T09:39:29;103520.41;;;12.44
34125;BMP280;20110;53.120;5.786;2023-04-03T09:42:15;103538.75;;;12.66
34125;BMP280;20110;53.120;5.786;2023-04-03T09:47:28;103532.28;;;12.97
34125;BMP280;20110;53.120;5.786;2023-04-03T09:52:50;103547.94;;;13.48
34125;BMP280;20110;53.120;5.786;2023-04-03T09:55:24;103500.81;;;14.61
34125;BMP280;20110;53.120;5.786;2023-04-03T09:58:05;103530.72;;;16.02
34125;BMP280;20110;53.120;5.786;2023-04-03T10:01:01;103536.94;;;17.25
34125;BMP280;20110;53.120;5.786;2023-04-03T10:03:35;103543.81;;;17.95
34125;BMP280;20110;53.120;5.786;2023-04-03T10:06:03;103527.88;;;18.43
34125;BMP280;20110;53.120;5.786;2023-04-03T10:08:33;103513.38;;;18.82
34125;BMP280;20110;53.120;5.786;2023-04-03T10:11:17;103521.00;;;19.45
34125;BMP280;20110;53.120;5.786;2023-04-03T10:13:59;103495.63;;;19.91
34125;BMP280;20110;53.120;5.786;2023-04-03T10:16:47;103506.78;;;20.59
34125;BMP280;20110;53.120;5.786;2023-04-03T10:19:39;103525.84;;;21.06
34125;BMP280;20110;53.120;5.786;2023-04-03T10:25:21;103518.53;;;21.48
34125;BMP280;20110;53.120;5.786;2023-04-03T10:28:46;103510.19;;;21.59
34125;BMP280;20110;53.120;5.786;2023-04-03T10:31:56;103513.13;;;21.61
34125;BMP280;20110;53.120;5.786;2023-04-03T10:34:37;103507.97;;;21.71
34125;BMP280;20110;53.120;5.786;2023-04-03T10:40:00;103496.81;;;21.95
34125;BMP280;20110;53.120;5.786;2023-04-03T10:42:43;103508.94;;;22.23
34125;BMP280;20110;53.120;5.786;2023-04-03T10:45:40;103493.84;;;22.06
34125;BMP280;20110;53.120;5.786;2023-04-03T10:48:33;103509.19;;;22.04
34125;BMP280;20110;53.120;5.786;2023-04-03T10:54:28;103492.44;;;22.41
34125;BMP280;20110;53.120;5.786;2023-04-03T10:57:03;103504.88;;;22.65
34125;BMP280;20110;53.120;5.786;2023-04-03T10:59:48;103503.53;;;22.79
34125;BMP280;20110;53.120;5.786;2023-04-03T11:02:25;103501.72;;;22.82
34125;BMP280;20110;53.120;5.786;2023-04-03T11:05:08;103491.72;;;22.69
34125;BMP280;20110;53.120;5.786;2023-04-03T11:07:47;103473.41;;;22.54
34125;BMP280;20110;53.120;5.786;2023-04-03T11:10:23;103456.19;;;22.44
34125;BMP280;20110;53.120;5.786;2023-04-03T11:13:01;103460.38;;;22.96
34125;BMP280;20110;53.120;5.786;2023-04-03T11:15:31;103485.94;;;23.24
34125;BMP280;20110;53.120;5.786;2023-04-03T11:18:06;103493.56;;;23.40
34125;BMP280;20110;53.120;5.786;2023-04-03T11:20:36;103475.84;;;23.47
34125;BMP280;20110;53.120;5.786;2023-04-03T11:23:17;103437.31;;;23.26
34125;BMP280;20110;53.120;5.786;2023-04-03T11:25:50;103474.75;;;23.27
34125;BMP280;20110;53.120;5.786;2023-04-03T11:28:18;103473.63;;;23.15
34125;BMP280;20110;53.120;5.786;2023-04-03T11:30:55;103464.06;;;23.29
34125;BMP280;20110;53.120;5.786;2023-04-03T11:38:47;103449.41;;;23.93
34125;BMP280;20110;53.120;5.786;2023-04-03T11:41:15;103412.91;;;23.71
34125;BMP280;20110;53.120;5.786;2023-04-03T11:43:56;103440.53;;;23.92
34125;BMP280;20110;53.120;5.786;2023-04-03T11:46:52;103451.56;;;24.10
34125;BMP280;20110;53.120;5.786;2023-04-03T11:50:00;103446.69;;;24.08
34125;BMP280;20110;53.120;5.786;2023-04-03T12:08:47;103435.56;;;24.69
34125;BMP280;20110;53.120;5.786;2023-04-03T12:11:31;103427.69;;;24.80
34125;BMP280;20110;53.120;5.786;2023-04-03T12:29:38;103419.19;;;24.84
34125;BMP280;20110;53.120;5.786;2023-04-03T12:35:29;103424.44;;;24.82
34125;BMP280;20110;53.120;5.786;2023-04-03T12:41:24;103412.72;;;25.21
34125;BMP280;20110;53.120;5.786;2023-04-03T12:47:02;103380.56;;;24.86
34125;BMP280;20110;53.120;5.786;2023-04-03T12:49:43;103382.16;;;24.64
34125;BMP280;20110;53.120;5.786;2023-04-03T12:52:46;103403.50;;;24.67
34125;BMP280;20110;53.120;5.786;2023-04-03T12:55:17;103409.56;;;24.51
34125;BMP280;20110;53.120;5.786;2023-04-03T12:57:44;103400.44;;;24.31
34125;BMP280;20110;53.120;5.786;2023-04-03T13:00:39;103377.88;;;24.13
34125;BMP280;20110;53.120;5.786;2023-04-03T13:03:21;103380.00;;;24.22
34125;BMP280;20110;53.120;5.786;2023-04-03T13:05:48;103381.44;;;24.23
34125;BMP280;20110;53.120;5.786;2023-04-03T13:08:15;103392.03;;;24.04
34125;BMP280;20110;53.120;5.786;2023-04-03T13:11:20;103372.72;;;23.62
34125;BMP280;20110;53.120;5.786;2023-04-03T13:14:03;103383.44;;;23.68
34125;BMP280;20110;53.120;5.786;2023-04-03T13:16:32;103369.50;;;23.41
34125;BMP280;20110;53.120;5.786;2023-04-03T13:19:01;103323.97;;;23.01
34125;BMP280;20110;53.120;5.786;2023-04-03T13:21:33;103368.59;;;23.08
34125;BMP280;20110;53.120;5.786;2023-04-03T13:24:02;103379.94;;;22.84
34125;BMP280;20110;53.120;5.786;2023-04-03T13:26:32;103365.75;;;22.47
34125;BMP280;20110;53.120;5.786;2023-04-03T13:29:07;103354.03;;;22.09
34125;BMP280;20110;53.120;5.786;2023-04-03T13:31:39;103354.50;;;21.71
34125;BMP280;20110;53.120;5.786;2023-04-03T13:34:12;103347.00;;;21.36
34125;BMP280;20110;53.120;5.786;2023-04-03T13:36:42;103348.94;;;20.94
34125;BMP280;20110;53.120;5.786;2023-04-03T13:41:58;103346.88;;;20.27
34125;BMP280;20110;53.120;5.786;2023-04-03T13:44:36;103352.88;;;20.06
34125;BMP280;20110;53.120;5.786;2023-04-03T13:49:41;103346.22;;;19.49
34125;BMP280;20110;53.120;5.786;2023-04-03T13:52:31;103337.59;;;19.19
34125;BMP280;20110;53.120;5.786;2023-04-03T13:55:17;103335.56;;;19.06
34125;BMP280;20110;53.120;5.786;2023-04-03T13:58:22;103336.31;;;19.07
34125;BMP280;20110;53.120;5.786;2023-04-03T14:01:00;103345.91;;;19.02
34125;BMP280;20110;53.120;5.786;2023-04-03T14:03:42;103328.97;;;18.64
34125;BMP280;20110;53.120;5.786;2023-04-03T14:06:15;103343.81;;;18.52
34125;BMP280;20110;53.120;5.786;2023-04-03T14:08:46;103326.94;;;18.27
34125;BMP280;20110;53.120;5.786;2023-04-03T14:11:24;103318.34;;;18.04
34125;BMP280;20110;53.120;5.786;2023-04-03T14:13:50;103292.94;;;17.76
34125;BMP280;20110;53.120;5.786;2023-04-03T14:16:23;103335.06;;;17.92
34125;BMP280;20110;53.120;5.786;2023-04-03T14:18:50;103337.59;;;17.84
34125;BMP280;20110;53.120;5.786;2023-04-03T14:21:19;103331.47;;;17.84
34125;BMP280;20110;53.120;5.786;2023-04-03T14:23:46;103324.31;;;17.92
34125;BMP280;20110;53.120;5.786;2023-04-03T14:26:18;103320.22;;;17.85
34125;BMP280;20110;53.120;5.786;2023-04-03T14:28:51;103314.94;;;17.74
34125;BMP280;20110;53.120;5.786;2023-04-03T14:31:19;103318.16;;;17.67
34125;BMP280;20110;53.120;5.786;2023-04-03T14:33:45;103308.66;;;17.60
34125;BMP280;20110;53.120;5.786;2023-04-03T14:36:31;103318.50;;;17.52
34125;BMP280;20110;53.120;5.786;2023-04-03T14:38:59;103325.09;;;17.51
34125;BMP280;20110;53.120;5.786;2023-04-03T14:41:26;103316.84;;;17.44
34125;BMP280;20110;53.120;5.786;2023-04-03T14:43:53;103281.59;;;17.17
34125;BMP280;20110;53.120;5.786;2023-04-03T14:46:32;103288.94;;;17.11
34125;BMP280;20110;53.120;5.786;2023-04-03T14:48:58;103320.09;;;17.25
34125;BMP280;20110;53.120;5.786;2023-04-03T14:51:25;103309.91;;;17.18
34125;BMP280;20110;53.120;5.786;2023-04-03T14:53:52;103284.13;;;16.93
34125;BMP280;20110;53.120;5.786;2023-04-03T14:56:25;103312.38;;;17.11
34125;BMP280;20110;53.120;5.786;2023-04-03T14:58:58;103281.88;;;17.03
34125;BMP280;20110;53.120;5.786;2023-04-03T15:01:25;103299.91;;;17.13
34125;BMP280;20110;53.120;5.786;2023-04-03T15:03:51;103316.53;;;17.12
34125;BMP280;20110;53.120;5.786;2023-04-03T15:06:17;103238.19;;;16.50
34125;BMP280;20110;53.120;5.786;2023-04-03T15:08:46;103312.91;;;16.92
34125;BMP280;20110;53.120;5.786;2023-04-03T15:11:14;103200.00;;;16.22
34125;BMP280;20110;53.120;5.786;2023-04-03T15:13:40;103279.09;;;16.78
34125;BMP280;20110;53.120;5.786;2023-04-03T15:16:18;103297.53;;;16.93
34125;BMP280;20110;53.120;5.786;2023-04-03T15:18:46;103291.91;;;17.02
34125;BMP280;20110;53.120;5.786;2023-04-03T15:21:13;103290.72;;;16.98
34125;BMP280;20110;53.120;5.786;2023-04-03T15:23:39;103259.34;;;16.76
34125;BMP280;20110;53.120;5.786;2023-04-03T15:26:06;103288.56;;;16.90
34125;BMP280;20110;53.120;5.786;2023-04-03T15:28:39;103282.00;;;16.80
34125;BMP280;20110;53.120;5.786;2023-04-03T15:31:08;103285.66;;;16.83
34125;BMP280;20110;53.120;5.786;2023-04-03T15:33:35;103282.50;;;16.73
34125;BMP280;20110;53.120;5.786;2023-04-03T15:36:01;103283.75;;;16.67
34125;BMP280;20110;53.120;5.786;2023-04-03T15:38:27;103276.97;;;16.54
34125;BMP280;20110;53.120;5.786;2023-04-03T15:40:55;103253.63;;;16.22
34125;BMP280;20110;53.120;5.786;2023-04-03T15:43:22;103271.41;;;16.25
34125;BMP280;20110;53.120;5.786;2023-04-03T15:45:49;103286.03;;;16.35
34125;BMP280;20110;53.120;5.786;2023-04-03T15:48:31;103258.72;;;16.14
34125;BMP280;20110;53.120;5.786;2023-04-03T15:50:57;103256.53;;;16.18